Time;durP1;ratioP1;P1;durP2;ratioP2;P2;SDS_P1;SDS_P2;PMS_P1;PMS_P2;Temp;Humidity;BMP_temperature;BMP_pressure;BME280_temperature;BME280_humidity;BME280_pressure;Samples;Min_cycle;Max_cycle;Signal;HPM_P1;HPM_P2
2024/01/12 00:00:30;;;;;;;7.03;4.03;;;-2.00;99.90;;;;;;4938803;29;20094;-88
2024/01/12 00:02:56;;;;;;;5.88;3.47;;;-2.00;99.90;;;;;;4937797;28;20067;-88
2024/01/12 00:05:22;;;;;;;6.88;3.65;;;-2.00;99.90;;;;;;4937509;29;20114;-88
2024/01/12 00:07:48;;;;;;;5.28;3.80;;;-2.00;99.90;;;;;;4938191;28;20094;-88
2024/01/12 00:10:14;;;;;;;5.15;3.72;;;-1.90;99.90;;;;;;4923451;28;20805;-88
2024/01/12 00:12:39;;;;;;;4.95;3.63;;;-1.90;99.90;;;;;;4934473;28;20126;-87
2024/01/12 00:15:06;;;;;;;4.90;3.78;;;-1.90;99.90;;;;;;4922932;29;20031;-88
2024/01/12 00:17:32;;;;;;;7.47;4.10;;;-1.90;99.90;;;;;;4930217;29;20035;-88
2024/01/12 00:19:58;;;;;;;4.55;3.65;;;-1.90;99.90;;;;;;4936926;29;20035;-88
2024/01/12 00:22:24;;;;;;;7.65;4.38;;;-1.90;99.90;;;;;;4953265;28;20130;-88
2024/01/12 00:24:50;;;;;;;6.47;3.88;;;-1.90;99.90;;;;;;4950892;28;20045;-90
2024/01/12 00:27:16;;;;;;;8.27;4.68;;;-1.90;99.90;;;;;;4936281;29;20059;-88
2024/01/12 00:29:41;;;;;;;7.43;4.43;;;-1.90;99.90;;;;;;4921245;29;20031;-89
2024/01/12 00:32:07;;;;;;;6.28;4.20;;;-1.90;99.90;;;;;;4931129;29;20047;-88
2024/01/12 00:34:33;;;;;;;8.00;5.18;;;-1.90;99.90;;;;;;4936664;29;20031;-88
2024/01/12 00:37:02;;;;;;;11.23;4.90;;;-1.90;99.90;;;;;;4937097;28;20031;-88
2024/01/12 00:39:27;;;;;;;9.70;5.70;;;-1.90;99.90;;;;;;4942739;29;20407;-87
2024/01/12 00:41:54;;;;;;;8.38;4.65;;;-1.90;99.90;;;;;;4941708;28;20050;-88
2024/01/12 00:44:21;;;;;;;9.52;5.70;;;-1.90;99.90;;;;;;4923789;28;20488;-88
2024/01/12 00:46:50;;;;;;;9.15;5.35;;;-1.90;99.90;;;;;;4929191;29;20483;-88
2024/01/12 00:49:19;;;;;;;6.55;4.43;;;-1.90;99.90;;;;;;4940587;29;20042;-89
2024/01/12 00:51:45;;;;;;;11.45;5.60;;;-1.90;99.90;;;;;;4925719;29;20093;-89
2024/01/12 00:54:11;;;;;;;9.75;5.20;;;-1.90;99.90;;;;;;4957045;28;20573;-88
2024/01/12 00:56:37;;;;;;;8.80;5.38;;;-2.00;99.90;;;;;;4957776;28;20031;-88
2024/01/12 00:59:03;;;;;;;8.93;5.45;;;-1.90;99.90;;;;;;4942399;28;20484;-88
2024/01/12 01:01:29;;;;;;;10.30;5.60;;;-2.00;99.90;;;;;;4956954;28;20031;-88
2024/01/12 01:03:55;;;;;;;10.77;5.63;;;-2.00;99.90;;;;;;4936782;28;20039;-88
2024/01/12 01:06:21;;;;;;;7.68;5.07;;;-2.00;99.90;;;;;;4940833;28;20038;-88
2024/01/12 01:08:48;;;;;;;10.43;5.35;;;-2.00;99.90;;;;;;4941295;28;20027;-88
2024/01/12 01:11:14;;;;;;;8.60;5.35;;;-2.00;99.90;;;;;;4953852;28;20085;-88
2024/01/12 01:13:40;;;;;;;12.82;6.03;;;-2.00;99.90;;;;;;4941004;29;20031;-88
2024/01/12 01:16:06;;;;;;;11.15;5.30;;;-2.00;99.90;;;;;;4938914;29;20031;-88
2024/01/12 01:18:32;;;;;;;8.32;4.72;;;-2.00;99.90;;;;;;4939735;29;20040;-88
2024/01/12 01:20:58;;;;;;;8.30;5.20;;;-2.10;99.90;;;;;;4940032;29;20045;-88
2024/01/12 01:23:24;;;;;;;8.70;5.13;;;-2.00;99.90;;;;;;4962242;28;20098;-89
2024/01/12 01:25:50;;;;;;;8.73;5.47;;;-2.10;99.90;;;;;;4955328;28;20059;-90
2024/01/12 01:28:16;;;;;;;9.18;4.85;;;-2.00;99.90;;;;;;4940134;29;20122;-87
2024/01/12 01:30:42;;;;;;;7.82;4.93;;;-2.00;99.90;;;;;;4939872;29;20130;-87
2024/01/12 01:33:08;;;;;;;8.38;5.18;;;-2.00;99.90;;;;;;4940612;28;20035;-89
2024/01/12 01:35:34;;;;;;;12.50;5.75;;;-2.00;99.90;;;;;;4939891;28;20027;-88
2024/01/12 01:38:00;;;;;;;10.00;5.45;;;-2.00;99.90;;;;;;4939785;28;20023;-88
2024/01/12 01:40:26;;;;;;;10.68;5.57;;;-2.00;99.90;;;;;;4957909;28;20027;-88
2024/01/12 01:42:52;;;;;;;10.60;5.50;;;-2.00;99.90;;;;;;4954381;29;20042;-89
2024/01/12 01:45:17;;;;;;;9.25;5.05;;;-2.00;99.90;;;;;;4949193;28;20035;-88
2024/01/12 01:47:45;;;;;;;8.05;4.90;;;-2.00;99.90;;;;;;4938184;29;20039;-88
2024/01/12 01:50:13;;;;;;;10.50;5.70;;;-2.00;99.90;;;;;;4936632;28;20031;-89
2024/01/12 01:52:39;;;;;;;8.88;5.35;;;-2.00;99.90;;;;;;4943082;29;20107;-89
2024/01/12 01:55:05;;;;;;;8.05;4.85;;;-2.00;99.90;;;;;;4924291;28;20027;-88
2024/01/12 01:57:32;;;;;;;9.18;4.95;;;-2.00;99.90;;;;;;4946947;28;20035;-88
2024/01/12 01:59:58;;;;;;;10.00;5.20;;;-2.00;99.90;;;;;;4941416;29;20035;-89
2024/01/12 02:02:24;;;;;;;9.63;4.80;;;-2.00;99.90;;;;;;4939841;29;20090;-89
2024/01/12 02:04:52;;;;;;;8.15;4.88;;;-2.00;99.90;;;;;;4959928;28;20403;-89
2024/01/12 02:07:18;;;;;;;10.00;5.20;;;-2.00;99.90;;;;;;4926669;28;20106;-89
2024/01/12 02:09:44;;;;;;;8.90;4.80;;;-2.00;99.90;;;;;;4939436;29;20605;-88
2024/01/12 02:12:10;;;;;;;11.13;5.28;;;-2.10;99.90;;;;;;4940272;28;20042;-88
2024/01/12 02:14:36;;;;;;;8.18;4.88;;;-2.00;99.90;;;;;;4947419;28;20027;-88
2024/01/12 02:17:02;;;;;;;7.30;4.45;;;-2.00;99.90;;;;;;4943637;28;20527;-88
2024/01/12 02:19:28;;;;;;;7.43;4.10;;;-2.00;99.90;;;;;;4948946;28;20023;-88
2024/01/12 02:21:53;;;;;;;7.22;4.30;;;-2.00;99.90;;;;;;4929015;28;20452;-89
2024/01/12 02:24:19;;;;;;;8.43;4.45;;;-2.00;99.90;;;;;;4946247;29;20047;-88
2024/01/12 02:26:45;;;;;;;7.97;4.60;;;-2.00;99.90;;;;;;4954238;28;20040;-87
2024/01/12 02:29:11;;;;;;;6.05;4.15;;;-2.00;99.90;;;;;;4938185;28;20031;-88
2024/01/12 02:31:39;;;;;;;6.28;3.65;;;-2.00;99.90;;;;;;4924097;28;20115;-89
2024/01/12 02:34:04;;;;;;;8.80;4.45;;;-1.90;99.90;;;;;;4927039;28;20033;-88
2024/01/12 02:36:30;;;;;;;8.32;4.55;;;-1.90;99.90;;;;;;4938283;29;21656;-89
2024/01/12 02:38:56;;;;;;;7.32;4.43;;;-2.00;99.90;;;;;;4941971;28;20059;-88
2024/01/12 02:41:22;;;;;;;8.02;4.03;;;-2.00;99.90;;;;;;4939915;28;20023;-88
2024/01/12 02:43:48;;;;;;;9.10;4.43;;;-2.00;99.90;;;;;;4939206;29;20047;-89
2024/01/12 02:46:13;;;;;;;7.32;4.18;;;-2.00;99.90;;;;;;4951146;28;20026;-87
2024/01/12 02:48:39;;;;;;;8.15;4.47;;;-2.00;99.90;;;;;;4933147;29;20604;-87
2024/01/12 02:51:06;;;;;;;6.13;4.10;;;-2.00;99.90;;;;;;4922551;28;20027;-88
2024/01/12 02:53:32;;;;;;;8.32;4.28;;;-2.00;99.90;;;;;;4932511;28;20523;-88
2024/01/12 02:55:58;;;;;;;6.53;4.10;;;-1.90;99.90;;;;;;4944807;28;20035;-88
2024/01/12 02:58:24;;;;;;;8.32;4.03;;;-1.90;99.90;;;;;;4923190;29;20027;-88
2024/01/12 03:00:52;;;;;;;6.10;4.05;;;-1.90;99.90;;;;;;4939280;29;20750;-88
2024/01/12 03:03:18;;;;;;;7.22;3.97;;;-2.00;99.90;;;;;;4933733;28;20772;-89
2024/01/12 03:05:44;;;;;;;6.63;4.03;;;-1.90;99.90;;;;;;4927613;29;20503;-88
2024/01/12 03:08:10;;;;;;;6.45;4.32;;;-2.00;99.90;;;;;;4933033;28;20050;-87
2024/01/12 03:10:36;;;;;;;4.68;3.03;;;-2.00;99.90;;;;;;4939941;29;20042;-87
2024/01/12 03:13:03;;;;;;;7.25;4.10;;;-1.90;99.90;;;;;;4954379;28;20062;-88
2024/01/12 03:15:28;;;;;;;7.63;3.85;;;-2.00;99.90;;;;;;4958814;28;20046;-88
2024/01/12 03:17:56;;;;;;;6.03;3.95;;;-2.00;99.90;;;;;;4936374;28;20039;-88
2024/01/12 03:20:22;;;;;;;7.53;3.85;;;-1.90;99.90;;;;;;4938130;28;20027;-87
2024/01/12 03:22:48;;;;;;;6.38;3.80;;;-2.00;99.90;;;;;;4937916;29;20560;-88
2024/01/12 03:25:14;;;;;;;6.65;3.70;;;-1.90;99.90;;;;;;4943576;28;20050;-88
2024/01/12 03:27:39;;;;;;;5.25;3.50;;;-1.90;99.90;;;;;;4927299;28;20042;-88
2024/01/12 03:30:06;;;;;;;7.90;4.50;;;-1.90;99.90;;;;;;4910968;28;20043;-88
2024/01/12 03:32:33;;;;;;;6.45;3.92;;;-1.90;99.90;;;;;;4949411;28;20050;-87
2024/01/12 03:34:59;;;;;;;5.50;3.42;;;-1.90;99.90;;;;;;4953839;28;20592;-88
2024/01/12 03:37:26;;;;;;;7.70;3.88;;;-1.90;99.90;;;;;;4938618;29;20043;-88
2024/01/12 03:39:52;;;;;;;7.40;4.03;;;-1.90;99.90;;;;;;4939062;29;20052;-88
2024/01/12 03:42:18;;;;;;;6.13;3.53;;;-1.90;99.90;;;;;;4939225;28;20447;-88
2024/01/12 03:44:43;;;;;;;7.15;4.05;;;-1.90;99.90;;;;;;4938774;29;20035;-89
2024/01/12 03:47:09;;;;;;;5.10;3.38;;;-1.90;99.90;;;;;;4954345;28;20035;-89
2024/01/12 03:49:35;;;;;;;6.47;3.83;;;-1.80;99.90;;;;;;4938844;28;20090;-88
2024/01/12 03:52:00;;;;;;;7.10;3.88;;;-1.80;99.90;;;;;;4926808;28;20038;-87
2024/01/12 03:54:26;;;;;;;7.60;4.20;;;-1.80;99.90;;;;;;4911780;28;20460;-87
2024/01/12 03:56:52;;;;;;;7.00;4.20;;;-1.80;99.90;;;;;;4940357;29;20039;-87
2024/01/12 03:59:19;;;;;;;6.47;3.75;;;-1.80;99.90;;;;;;4937999;28;20031;-87
2024/01/12 04:01:46;;;;;;;7.05;3.83;;;-1.80;99.90;;;;;;4948353;28;20054;-87
2024/01/12 04:04:12;;;;;;;6.75;3.63;;;-1.80;99.90;;;;;;4964827;28;20154;-89
2024/01/12 04:06:41;;;;;;;6.50;3.92;;;-1.80;99.90;;;;;;4954079;28;20034;-88
2024/01/12 04:09:11;;;;;;;5.88;3.22;;;-1.80;99.90;;;;;;4943700;28;20074;-89
2024/01/12 04:11:37;;;;;;;7.65;3.72;;;-1.80;99.90;;;;;;4956734;28;20077;-89
2024/01/12 04:14:03;;;;;;;5.90;3.80;;;-1.80;99.90;;;;;;4963277;28;20043;-88
2024/01/12 04:16:29;;;;;;;7.10;3.88;;;-1.80;99.90;;;;;;4949143;28;20030;-87
2024/01/12 04:18:55;;;;;;;6.80;3.65;;;-1.80;99.90;;;;;;4951410;28;20061;-88
2024/01/12 04:21:22;;;;;;;7.50;4.45;;;-1.80;99.90;;;;;;4961057;28;20058;-87
2024/01/12 04:23:48;;;;;;;5.93;3.65;;;-1.80;99.90;;;;;;4929310;29;20066;-87
2024/01/12 04:26:13;;;;;;;5.32;3.45;;;-1.80;99.90;;;;;;4962040;28;20042;-87
2024/01/12 04:28:39;;;;;;;5.78;3.58;;;-1.80;99.90;;;;;;4960933;28;20464;-87
2024/01/12 04:31:05;;;;;;;6.28;3.97;;;-1.80;99.90;;;;;;4942804;28;20067;-89
2024/01/12 04:33:32;;;;;;;5.93;3.97;;;-1.80;99.90;;;;;;4958308;28;20039;-89
2024/01/12 04:35:58;;;;;;;7.13;3.40;;;-1.80;99.90;;;;;;4941976;28;20040;-88
2024/01/12 04:38:25;;;;;;;8.05;4.05;;;-1.80;99.90;;;;;;4959531;28;20024;-88
2024/01/12 04:40:51;;;;;;;7.63;4.22;;;-1.80;99.90;;;;;;4963284;28;20090;-88
2024/01/12 04:43:17;;;;;;;5.28;3.42;;;-1.80;99.90;;;;;;4943913;28;20035;-87
2024/01/12 04:45:44;;;;;;;7.35;3.88;;;-1.80;99.90;;;;;;4949664;28;20093;-87
2024/01/12 04:48:10;;;;;;;6.07;3.95;;;-1.80;99.90;;;;;;4927547;28;20031;-88
2024/01/12 04:50:35;;;;;;;6.15;3.83;;;-1.80;99.90;;;;;;4915880;28;20106;-88
2024/01/12 04:53:01;;;;;;;8.48;4.43;;;-1.70;99.90;;;;;;4944716;28;20106;-88
2024/01/12 04:55:27;;;;;;;8.15;4.53;;;-1.70;99.90;;;;;;4927855;28;20058;-87
2024/01/12 04:57:53;;;;;;;7.45;4.63;;;-1.70;99.90;;;;;;4944369;28;20030;-88
2024/01/12 05:00:19;;;;;;;9.00;4.70;;;-1.70;99.90;;;;;;4961814;28;20028;-87
2024/01/12 05:02:45;;;;;;;7.07;4.32;;;-1.70;99.90;;;;;;4943631;28;20066;-88
2024/01/12 05:05:11;;;;;;;6.63;4.05;;;-1.70;99.90;;;;;;4966606;28;20030;-88
2024/01/12 05:07:37;;;;;;;7.07;4.30;;;-1.70;99.90;;;;;;4942077;28;20031;-88
2024/01/12 05:10:04;;;;;;;7.85;4.05;;;-1.80;99.90;;;;;;4946600;29;20043;-88
2024/01/12 05:12:30;;;;;;;8.60;4.47;;;-1.80;99.90;;;;;;4965783;28;20122;-87
2024/01/12 05:14:59;;;;;;;7.90;4.53;;;-1.80;99.90;;;;;;4941612;28;20026;-89
2024/01/12 05:17:25;;;;;;;7.68;4.50;;;-1.80;99.90;;;;;;4953406;28;20030;-87
2024/01/12 05:19:51;;;;;;;9.00;5.00;;;-1.80;99.90;;;;;;4925684;29;20023;-89
2024/01/12 05:22:17;;;;;;;8.70;4.82;;;-1.80;99.90;;;;;;4943944;28;20031;-88
2024/01/12 05:24:42;;;;;;;9.07;4.97;;;-1.80;99.90;;;;;;4946447;28;20073;-88
2024/01/12 05:27:08;;;;;;;9.13;4.32;;;-1.80;99.90;;;;;;4950198;28;20026;-88
2024/01/12 05:29:34;;;;;;;8.98;5.00;;;-1.80;99.90;;;;;;4951508;28;20058;-88
2024/01/12 05:32:01;;;;;;;8.63;4.68;;;-1.80;99.90;;;;;;4943924;28;20041;-88
2024/01/12 05:34:26;;;;;;;9.00;5.13;;;-1.80;99.90;;;;;;4963646;28;20042;-89
2024/01/12 05:36:52;;;;;;;7.43;4.90;;;-1.80;99.90;;;;;;4949124;28;20038;-88
2024/01/12 05:39:18;;;;;;;8.77;4.20;;;-1.80;99.90;;;;;;4946653;28;20030;-88
2024/01/12 05:41:44;;;;;;;9.65;4.88;;;-1.80;99.90;;;;;;4969630;28;20069;-87
2024/01/12 05:44:10;;;;;;;8.52;4.80;;;-1.80;99.90;;;;;;4928342;29;20472;-86
2024/01/12 05:46:35;;;;;;;7.78;4.35;;;-1.80;99.90;;;;;;4938453;28;20179;-87
2024/01/12 05:49:04;;;;;;;9.15;4.90;;;-1.80;99.90;;;;;;4938168;29;20035;-87
2024/01/12 05:51:33;;;;;;;8.35;4.97;;;-1.80;99.90;;;;;;4954364;28;20055;-89
2024/01/12 05:53:58;;;;;;;8.75;4.70;;;-1.80;99.90;;;;;;4964080;28;20023;-88
2024/01/12 05:56:24;;;;;;;9.52;5.07;;;-1.80;99.90;;;;;;4950211;28;20117;-86
2024/01/12 05:58:50;;;;;;;8.40;4.78;;;-1.80;99.90;;;;;;4960114;28;20072;-88
2024/01/12 06:01:17;;;;;;;7.90;4.47;;;-1.80;99.90;;;;;;4948029;28;20027;-89
2024/01/12 06:03:46;;;;;;;8.20;5.35;;;-1.80;99.90;;;;;;4943637;29;20031;-88
2024/01/12 06:06:11;;;;;;;15.75;11.00;;;-1.80;99.90;;;;;;4965120;28;20055;-90
2024/01/12 06:08:37;;;;;;;14.32;9.25;;;-1.80;99.90;;;;;;4937434;29;20066;-88
2024/01/12 06:11:22;;;;;;;11.85;5.45;;;-1.80;99.90;;;;;;4948181;28;20129;-89
2024/01/12 06:13:47;;;;;;;16.52;9.80;;;-1.80;99.90;;;;;;4937416;29;20508;-87
2024/01/12 06:16:13;;;;;;;9.98;5.95;;;-1.80;99.90;;;;;;4945798;28;20037;-88
2024/01/12 06:18:39;;;;;;;20.17;10.77;;;-1.80;99.90;;;;;;4936690;28;20086;-87
2024/01/12 06:21:05;;;;;;;19.00;10.20;;;-1.80;99.90;;;;;;4952871;28;20031;-86
2024/01/12 06:23:31;;;;;;;19.65;11.93;;;-1.80;99.90;;;;;;4945543;28;20593;-88
2024/01/12 06:25:57;;;;;;;14.90;8.82;;;-1.80;99.90;;;;;;4949181;28;20172;-88
2024/01/12 06:28:23;;;;;;;10.65;6.13;;;-1.80;99.90;;;;;;4948687;29;20121;-88
2024/01/12 06:30:51;;;;;;;12.02;6.30;;;-1.70;99.90;;;;;;4948856;28;20119;-87
2024/01/12 06:33:16;;;;;;;10.48;6.03;;;-1.70;99.90;;;;;;4942719;28;20122;-88
2024/01/12 06:35:42;;;;;;;12.13;7.93;;;-1.70;99.90;;;;;;4944816;28;20074;-89
2024/01/12 06:38:10;;;;;;;13.18;7.85;;;-1.70;99.90;;;;;;4948992;29;20055;-88
2024/01/12 06:40:38;;;;;;;10.75;7.00;;;-1.80;99.90;;;;;;4937924;28;20410;-87
2024/01/12 06:43:04;;;;;;;10.80;6.13;;;-1.80;99.90;;;;;;4940102;28;20066;-88
2024/01/12 06:45:30;;;;;;;10.20;6.00;;;-1.80;99.90;;;;;;4949732;28;20464;-88
2024/01/12 06:47:55;;;;;;;11.77;5.65;;;-1.80;99.90;;;;;;4949597;28;20082;-87
2024/01/12 06:50:21;;;;;;;11.30;5.85;;;-1.80;99.90;;;;;;4949505;28;20038;-86
2024/01/12 06:52:47;;;;;;;10.85;5.65;;;-1.80;99.90;;;;;;4938049;29;20423;-89
2024/01/12 06:55:13;;;;;;;10.75;5.07;;;-1.80;99.90;;;;;;4941840;29;20035;-89
2024/01/12 06:57:38;;;;;;;8.95;5.38;;;-1.80;99.90;;;;;;4956194;28;20019;-87
2024/01/12 07:00:06;;;;;;;12.63;6.15;;;-1.80;99.90;;;;;;4967136;28;20041;-88
2024/01/12 07:02:34;;;;;;;11.20;5.50;;;-1.80;99.90;;;;;;4953134;28;20063;-87
2024/01/12 07:05:00;;;;;;;11.10;5.88;;;-1.70;99.90;;;;;;4945116;28;20114;-88
2024/01/12 07:07:25;;;;;;;8.68;5.70;;;-1.60;99.90;;;;;;4938349;28;20182;-88
2024/01/12 07:09:51;;;;;;;9.52;5.57;;;-1.70;99.90;;;;;;4942663;29;20039;-88
2024/01/12 07:12:17;;;;;;;10.10;5.80;;;-1.70;99.90;;;;;;4957860;28;20050;-89
2024/01/12 07:14:42;;;;;;;10.48;5.88;;;-1.80;99.90;;;;;;4941959;29;20122;-87
2024/01/12 07:17:08;;;;;;;10.48;6.00;;;-1.80;99.90;;;;;;4937526;28;20024;-88
2024/01/12 07:19:34;;;;;;;9.52;5.63;;;-1.80;99.90;;;;;;4925102;28;20039;-88
2024/01/12 07:21:59;;;;;;;10.90;5.30;;;-1.80;99.90;;;;;;4941885;28;20035;-87
2024/01/12 07:24:25;;;;;;;11.93;6.00;;;-1.80;99.90;;;;;;4942291;29;20369;-88
2024/01/12 07:26:51;;;;;;;11.80;6.03;;;-1.80;99.90;;;;;;4926794;29;20035;-88
2024/01/12 07:29:17;;;;;;;15.05;7.22;;;-1.80;99.90;;;;;;4931675;28;20039;-88
2024/01/12 07:31:43;;;;;;;12.60;8.48;;;-1.80;99.90;;;;;;4946231;28;20031;-87
2024/01/12 07:34:08;;;;;;;13.50;7.53;;;-1.80;99.90;;;;;;4948624;28;20476;-86
2024/01/12 07:36:34;;;;;;;11.05;5.57;;;-1.80;99.90;;;;;;4959508;28;20506;-88
2024/01/12 07:39:00;;;;;;;11.25;6.35;;;-1.80;99.90;;;;;;4942246;28;20599;-86
2024/01/12 07:41:26;;;;;;;11.40;5.97;;;-1.80;99.90;;;;;;4959126;28;20024;-87
2024/01/12 07:43:53;;;;;;;11.02;5.80;;;-1.80;99.90;;;;;;4959617;28;20563;-87
2024/01/12 07:46:19;;;;;;;10.18;5.75;;;-1.80;99.90;;;;;;4939901;28;20118;-87
2024/01/12 07:48:50;;;;;;;9.85;5.53;;;-1.80;99.90;;;;;;4926215;29;20121;-88
2024/01/12 07:51:17;;;;;;;8.77;5.43;;;-1.80;99.90;;;;;;4929425;28;20042;-87
2024/01/12 07:53:43;;;;;;;8.93;5.18;;;-1.80;99.90;;;;;;4929650;28;20109;-89
2024/01/12 07:56:10;;;;;;;8.80;5.30;;;-1.80;99.90;;;;;;4959890;28;20626;-89
2024/01/12 07:58:35;;;;;;;10.68;5.60;;;-1.80;99.90;;;;;;4953419;28;20163;-88
2024/01/12 08:01:01;;;;;;;13.10;6.15;;;-1.70;99.90;;;;;;4941291;28;20050;-88
2024/01/12 08:03:27;;;;;;;12.15;6.20;;;-1.70;99.90;;;;;;4936287;28;20429;-87
2024/01/12 08:05:53;;;;;;;10.77;5.80;;;-1.70;99.90;;;;;;4944987;29;20050;-87
2024/01/12 08:08:19;;;;;;;10.43;5.97;;;-1.70;99.90;;;;;;4936181;28;20031;-88
2024/01/12 08:10:46;;;;;;;10.98;5.88;;;-1.70;99.90;;;;;;4956903;28;20078;-88
2024/01/12 08:13:12;;;;;;;9.60;5.75;;;-1.70;99.90;;;;;;4943103;28;20459;-87
2024/01/12 08:15:38;;;;;;;10.23;5.65;;;-1.80;99.90;;;;;;4946304;28;20039;-87
2024/01/12 08:18:04;;;;;;;13.02;6.18;;;-1.70;99.90;;;;;;4942547;29;20042;-88
2024/01/12 08:20:30;;;;;;;11.30;6.25;;;-1.80;99.90;;;;;;4943865;28;20078;-88
2024/01/12 08:22:56;;;;;;;9.32;6.15;;;-1.70;99.90;;;;;;4940645;28;20036;-86
2024/01/12 08:25:23;;;;;;;12.68;6.95;;;-1.70;99.90;;;;;;4923239;28;20035;-87
2024/01/12 08:27:49;;;;;;;12.00;6.60;;;-1.70;99.90;;;;;;4948551;28;20034;-89
2024/01/12 08:30:15;;;;;;;10.90;6.88;;;-1.60;99.90;;;;;;4941500;29;20032;-87
2024/01/12 08:32:40;;;;;;;10.95;6.85;;;-1.60;99.90;;;;;;4947094;28;20089;-88
2024/01/12 08:35:07;;;;;;;13.82;6.88;;;-1.70;99.90;;;;;;4958763;28;20041;-88
2024/01/12 08:37:32;;;;;;;11.40;6.75;;;-1.70;99.90;;;;;;4943690;28;20042;-88
2024/01/12 08:39:58;;;;;;;10.75;6.30;;;-1.70;99.90;;;;;;4944186;28;20122;-88
2024/01/12 08:42:24;;;;;;;11.18;7.07;;;-1.60;99.90;;;;;;4948314;28;20035;-89
2024/01/12 08:44:50;;;;;;;13.38;8.13;;;-1.70;99.90;;;;;;4962952;28;20641;-86
2024/01/12 08:47:16;;;;;;;14.25;7.00;;;-1.60;99.90;;;;;;4946816;28;20712;-88
2024/01/12 08:49:41;;;;;;;13.98;7.53;;;-1.60;99.90;;;;;;4960069;28;20036;-88
2024/01/12 08:52:07;;;;;;;10.48;6.38;;;-1.50;99.90;;;;;;4920411;29;20060;-87
2024/01/12 08:54:33;;;;;;;10.82;6.25;;;-1.50;99.90;;;;;;4945680;28;20031;-87
2024/01/12 08:56:58;;;;;;;11.73;6.78;;;-1.60;99.90;;;;;;4942317;28;20492;-88
2024/01/12 08:59:25;;;;;;;12.25;7.22;;;-1.60;99.90;;;;;;4926716;29;20039;-88
2024/01/12 09:01:51;;;;;;;12.50;7.63;;;-1.60;99.90;;;;;;4948534;28;20062;-88
2024/01/12 09:04:17;;;;;;;14.93;8.05;;;-1.60;99.90;;;;;;4963321;28;20456;-88
2024/01/12 09:06:43;;;;;;;12.75;7.15;;;-1.50;99.90;;;;;;4967029;28;20038;-86
2024/01/12 09:09:09;;;;;;;13.32;7.50;;;-1.50;99.90;;;;;;4957973;28;20035;-87
2024/01/12 09:11:35;;;;;;;15.40;7.93;;;-1.50;99.90;;;;;;4956575;28;20031;-86
2024/01/12 09:14:02;;;;;;;13.15;7.80;;;-1.50;99.90;;;;;;4933906;28;20023;-88
2024/01/12 09:16:27;;;;;;;13.25;7.60;;;-1.50;99.90;;;;;;4932864;28;20385;-86
2024/01/12 09:18:53;;;;;;;13.10;7.93;;;-1.50;99.90;;;;;;4947061;28;20037;-86
2024/01/12 09:21:19;;;;;;;14.20;8.50;;;-1.60;99.90;;;;;;4949721;28;20038;-87
2024/01/12 09:23:45;;;;;;;14.13;8.32;;;-1.60;99.90;;;;;;4930299;29;20085;-87
2024/01/12 09:26:12;;;;;;;15.75;8.32;;;-1.60;99.90;;;;;;4954993;28;20027;-88
2024/01/12 09:28:38;;;;;;;11.90;7.80;;;-1.60;99.90;;;;;;4961068;28;20035;-87
2024/01/12 09:31:05;;;;;;;14.57;8.20;;;-1.60;99.90;;;;;;4932586;28;20554;-87
2024/01/12 09:33:31;;;;;;;15.23;8.35;;;-1.60;99.90;;;;;;4968617;28;20480;-86
2024/01/12 09:35:56;;;;;;;12.75;7.05;;;-1.50;99.90;;;;;;4930971;29;20035;-86
2024/01/12 09:38:22;;;;;;;12.77;6.95;;;-1.50;99.90;;;;;;4962990;28;20026;-86
2024/01/12 09:40:48;;;;;;;9.77;6.32;;;-1.50;99.90;;;;;;4942979;29;20543;-87
2024/01/12 09:43:14;;;;;;;28.92;9.77;;;-1.40;99.90;;;;;;4965875;28;20043;-86
2024/01/12 09:45:44;;;;;;;11.27;6.57;;;-1.40;99.90;;;;;;4930409;29;20452;-86
2024/01/12 09:48:11;;;;;;;11.90;7.05;;;-1.30;99.90;;;;;;4956170;28;20496;-86
2024/01/12 09:50:38;;;;;;;13.10;7.22;;;-1.30;99.90;;;;;;4948096;28;20031;-87
2024/01/12 09:53:05;;;;;;;11.32;6.70;;;-1.30;99.90;;;;;;4957680;28;20137;-87
2024/01/12 09:55:30;;;;;;;11.38;7.03;;;-1.30;99.90;;;;;;4944008;29;20035;-86
2024/01/12 09:57:59;;;;;;;14.75;7.28;;;-1.30;99.90;;;;;;4950187;28;20039;-87
2024/01/12 10:00:31;;;;;;;10.77;6.55;;;-1.30;99.90;;;;;;4946144;28;20119;-88
2024/01/12 10:02:58;;;;;;;10.48;6.70;;;-1.30;99.90;;;;;;4971691;28;20110;-84
2024/01/12 10:05:25;;;;;;;8.45;5.78;;;-1.30;99.90;;;;;;4909552;29;20043;-86
2024/01/12 10:07:50;;;;;;;14.45;7.32;;;-1.20;99.90;;;;;;4931904;29;20086;-88
2024/01/12 10:10:16;;;;;;;9.70;6.07;;;-1.20;99.90;;;;;;4959636;28;20043;-85
2024/01/12 10:12:47;;;;;;;11.95;6.40;;;-1.20;99.90;;;;;;4949719;28;20046;-86
2024/01/12 10:15:15;;;;;;;13.55;5.95;;;-1.10;99.90;;;;;;4934346;28;20038;-86
2024/01/12 10:17:41;;;;;;;12.57;6.70;;;-1.10;99.90;;;;;;4963687;28;20069;-88
2024/01/12 10:20:09;;;;;;;11.65;6.65;;;-1.20;99.90;;;;;;4948108;28;20422;-86
2024/01/12 10:22:35;;;;;;;8.52;5.65;;;-1.10;99.90;;;;;;4953932;28;20031;-86
2024/01/12 10:25:03;;;;;;;8.68;5.45;;;-1.10;99.90;;;;;;4950702;28;20046;-87
2024/01/12 10:27:29;;;;;;;8.27;5.05;;;-1.10;99.90;;;;;;4930242;28;20039;-85
2024/01/12 10:29:58;;;;;;;10.20;6.18;;;-1.00;99.90;;;;;;4942142;29;20030;-85
2024/01/12 10:32:25;;;;;;;9.00;5.70;;;-1.10;99.90;;;;;;4958534;28;20035;-86
2024/01/12 10:34:52;;;;;;;30.25;8.15;;;-1.10;99.90;;;;;;4952534;29;20053;-86
2024/01/12 10:37:20;;;;;;;15.45;7.88;;;-1.10;99.90;;;;;;4949123;28;20046;-84
2024/01/12 10:39:47;;;;;;;9.93;5.90;;;-1.10;99.90;;;;;;4928290;29;20031;-87
2024/01/12 10:42:14;;;;;;;7.93;5.47;;;-1.10;99.90;;;;;;4963913;28;20030;-88
2024/01/12 10:44:42;;;;;;;9.65;4.75;;;-1.10;99.90;;;;;;4932629;29;20027;-85
2024/01/12 10:47:20;;;;;;;9.43;5.90;;;-1.20;99.90;;;;;;4944746;29;20047;-86
2024/01/12 10:49:53;;;;;;;8.20;5.30;;;-1.20;99.90;;;;;;4956406;28;20027;-88
2024/01/12 10:52:45;;;;;;;7.22;5.63;;;-1.20;99.90;;;;;;4926957;29;20035;-86
2024/01/12 10:55:16;;;;;;;7.50;4.90;;;-1.10;99.90;;;;;;4931505;29;20472;-87
2024/01/12 10:57:43;;;;;;;7.63;5.28;;;-1.10;99.90;;;;;;4948102;29;20031;-87
2024/01/12 11:00:10;;;;;;;9.18;5.05;;;-1.10;99.90;;;;;;4940617;28;20082;-86
2024/01/12 11:02:40;;;;;;;10.70;5.38;;;-1.10;99.90;;;;;;4936536;28;20038;-87
2024/01/12 11:05:10;;;;;;;8.13;4.88;;;-1.00;99.90;;;;;;4968243;28;20055;-86
2024/01/12 11:07:39;;;;;;;8.13;5.18;;;-1.00;99.90;;;;;;4948898;28;20042;-87
2024/01/12 11:10:07;;;;;;;8.38;5.72;;;-1.00;99.90;;;;;;4933745;28;20050;-85
2024/01/12 11:12:37;;;;;;;8.68;5.63;;;-1.00;99.90;;;;;;4953283;29;20050;-86
2024/01/12 11:15:05;;;;;;;8.98;5.80;;;-1.10;99.90;;;;;;4915088;29;20024;-84
2024/01/12 11:17:34;;;;;;;9.90;5.85;;;-1.00;99.90;;;;;;4949205;28;20034;-86
2024/01/12 11:20:10;;;;;;;10.95;5.72;;;-1.00;99.90;;;;;;4929891;28;20066;-84
2024/01/12 11:22:45;;;;;;;9.95;6.00;;;-1.00;99.90;;;;;;4934123;29;20035;-85
2024/01/12 11:25:12;;;;;;;9.48;6.10;;;-1.10;99.90;;;;;;4948751;28;20596;-84
2024/01/12 11:27:43;;;;;;;13.15;6.25;;;-1.10;99.90;;;;;;4945042;28;20114;-87
2024/01/12 11:30:12;;;;;;;10.27;6.22;;;-1.10;99.90;;;;;;4958280;28;20039;-87
2024/01/12 11:32:40;;;;;;;9.52;6.18;;;-1.00;99.90;;;;;;4928048;28;20039;-89
2024/01/12 11:35:19;;;;;;;11.80;8.18;;;-1.00;99.90;;;;;;4912242;29;20031;-86
2024/01/12 11:37:58;;;;;;;9.20;6.40;;;-0.90;99.90;;;;;;4942918;28;20084;-87
2024/01/12 11:40:24;;;;;;;10.25;6.32;;;-0.90;99.90;;;;;;4952339;28;20130;-87
2024/01/12 11:42:51;;;;;;;17.90;9.30;;;-0.90;99.90;;;;;;4942986;29;20043;-88
2024/01/12 11:45:18;;;;;;;14.50;7.78;;;-0.80;99.90;;;;;;4925519;28;20046;-88
2024/01/12 11:47:44;;;;;;;13.20;7.20;;;-0.80;99.90;;;;;;4944176;28;20562;-87
2024/01/12 11:50:16;;;;;;;11.32;7.18;;;-0.80;99.90;;;;;;4961936;28;20038;-86
2024/01/12 11:52:42;;;;;;;13.32;6.85;;;-0.80;99.90;;;;;;4934120;28;20034;-85
2024/01/12 11:55:10;;;;;;;12.75;7.15;;;-0.80;99.90;;;;;;4941546;28;20098;-85
2024/01/12 11:57:39;;;;;;;10.20;6.15;;;-0.80;99.90;;;;;;4940996;28;20144;-86
2024/01/12 12:00:06;;;;;;;10.48;6.65;;;-0.90;99.90;;;;;;4958314;28;20067;-84
2024/01/12 12:02:36;;;;;;;10.40;6.68;;;-1.00;99.90;;;;;;4966628;28;20031;-86
2024/01/12 12:05:11;;;;;;;9.38;6.03;;;-1.00;99.90;;;;;;4964347;28;20047;-87
2024/01/12 12:07:38;;;;;;;11.05;6.13;;;-1.10;99.90;;;;;;4942664;28;20073;-87
2024/01/12 12:10:05;;;;;;;10.13;5.82;;;-1.00;99.90;;;;;;4942652;28;20492;-87
2024/01/12 12:12:31;;;;;;;9.13;5.68;;;-1.00;99.90;;;;;;4936765;28;20074;-87
2024/01/12 12:15:04;;;;;;;6.95;4.78;;;-1.00;99.90;;;;;;4928784;28;20440;-87
2024/01/12 12:17:31;;;;;;;8.90;5.82;;;-1.00;99.90;;;;;;4957914;28;20368;-87
2024/01/12 12:19:57;;;;;;;9.85;5.75;;;-1.00;99.90;;;;;;4940281;28;20512;-85
2024/01/12 12:22:24;;;;;;;9.55;5.68;;;-1.00;99.90;;;;;;4944538;28;20035;-88
2024/01/12 12:24:50;;;;;;;9.75;5.50;;;-0.90;99.90;;;;;;4941668;28;20067;-87
2024/01/12 12:27:17;;;;;;;10.63;6.28;;;-0.90;99.90;;;;;;4942622;28;20027;-87
2024/01/12 12:29:44;;;;;;;9.27;5.55;;;-1.00;99.90;;;;;;4935851;28;20086;-85
2024/01/12 12:32:14;;;;;;;9.18;5.18;;;-1.00;99.90;;;;;;4935706;29;20039;-87
2024/01/12 12:34:40;;;;;;;9.38;5.75;;;-1.10;99.90;;;;;;4947843;28;20064;-87
2024/01/12 12:37:13;;;;;;;9.73;5.85;;;-1.10;99.90;;;;;;4947936;28;20082;-88
2024/01/12 12:39:39;;;;;;;9.32;5.70;;;-1.00;99.90;;;;;;4959428;28;20399;-87